San Martin de los Andes, Argentina
Current Conditions -  °F | °C
As of 10:00 AM on Monday 22 Dec 2014 (Local Time) from SAZS Reporting Station
Clear Clear  
Wind Chill: 43°   Ceiling: Unl
Heat Index: 48°   Visibility: 6mi
Dew Point: 32°   Wind: 14mph
Humidity: 54%   Direction: 290°WNW
Pressure: 30.21"   Gusts: NA
Location:  40.16°S, 71.36°W
Report Text: SAZS 221300Z 29012KT CAVOK 09/00 Q1023
Loading
Personal Weather Stations






























Interactive Weather Map New forecast layout! Learn more

10-Day Weather Forecast

Advertisements
Track Severe Weather on mobile